Time;durP1;ratioP1;P1;durP2;ratioP2;P2;SDS_P1;SDS_P2;PMS_P1;PMS_P2;Temp;Humidity;BMP_temperature;BMP_pressure;BME280_temperature;BME280_humidity;BME280_pressure;Samples;Min_cycle;Max_cycle;Signal;HPM_P1;HPM_P2
2021/01/24 00:02:26;;;;;;;13.73;4.60;;;18.80;52.30;;;;;;5106317;28;20023;-66
2021/01/24 00:04:52;;;;;;;10.35;4.65;;;18.80;52.80;;;;;;5091331;28;20024;-66
2021/01/24 00:07:18;;;;;;;;;;;18.70;53.10;;;;;;5109617;28;20127;-66
2021/01/24 00:09:45;;;;;;;11.13;5.03;;;18.50;55.30;;;;;;5103300;28;19908;-66
2021/01/24 00:12:11;;;;;;;10.68;4.72;;;18.90;80.80;;;;;;5111488;28;20076;-67
2021/01/24 00:14:38;;;;;;;49.97;6.35;;;;;;;;;;5103241;28;20377;-66
2021/01/24 00:17:05;;;;;;;13.93;5.32;;;17.70;78.40;;;;;;5083982;28;20077;-66
2021/01/24 00:19:31;;;;;;;17.83;7.00;;;18.30;62.70;;;;;;5102287;28;20423;-66
2021/01/24 00:21:58;;;;;;;8.88;4.22;;;18.30;54.50;;;;;;5086865;28;20024;-67
2021/01/24 00:24:24;;;;;;;8.55;4.35;;;18.20;54.60;;;;;;5090747;28;20023;-66
2021/01/24 00:26:51;;;;;;;12.93;4.72;;;18.10;54.70;;;;;;5098889;28;20494;-66
2021/01/24 00:29:17;;;;;;;14.65;4.78;;;18.10;54.80;;;;;;5096697;28;20369;-66
2021/01/24 00:31:43;;;;;;;;;;;18.10;55.00;;;;;;5105855;28;20047;-68
2021/01/24 00:34:11;;;;;;;15.07;5.40;;;18.00;55.60;;;;;;5102502;28;19968;-66
2021/01/24 00:36:38;;;;;;;12.00;5.10;;;17.90;56.10;;;;;;5101799;28;20048;-66
2021/01/24 00:39:06;;;;;;;14.55;4.85;;;17.90;56.00;;;;;;5106341;28;20446;-66
2021/01/24 00:41:33;;;;;;;10.43;4.47;;;17.80;56.20;;;;;;5112531;27;20019;-66
2021/01/24 00:44:00;;;;;;;16.00;4.38;;;17.80;56.50;;;;;;5103464;28;20026;-67
2021/01/24 00:46:26;;;;;;;11.60;4.15;;;17.70;56.30;;;;;;5105056;28;20401;-66
2021/01/24 00:48:53;;;;;;;15.52;7.20;;;17.70;56.40;;;;;;5098060;28;20042;-66
2021/01/24 00:51:20;;;;;;;11.27;4.03;;;17.70;56.30;;;;;;5103307;28;20023;-66
2021/01/24 00:53:46;;;;;;;10.23;4.03;;;17.40;57.70;;;;;;5092876;28;20487;-66
2021/01/24 00:56:12;;;;;;;;;;;17.00;59.90;;;;;;5102137;28;20012;-66
2021/01/24 00:58:39;;;;;;;26.58;12.07;;;16.90;62.00;;;;;;5096957;28;19954;-67
2021/01/24 01:01:05;;;;;;;;;;;16.80;63.60;;;;;;5100727;28;20012;-66
2021/01/24 01:03:31;;;;;;;13.07;4.45;;;16.70;64.70;;;;;;5090260;28;19907;-65
2021/01/24 01:06:00;;;;;;;13.98;5.18;;;16.40;71.00;;;;;;5104575;28;20051;-65
2021/01/24 01:08:26;;;;;;;10.18;3.67;;;16.00;79.30;;;;;;5104627;28;20036;-65
2021/01/24 01:10:52;;;;;;;;;;;15.60;85.10;;;;;;5082860;28;20038;-66
2021/01/24 01:13:19;;;;;;;12.82;5.07;;;15.30;92.30;;;;;;5089536;28;19916;-66
2021/01/24 01:15:45;;;;;;;;;;;15.10;98.60;;;;;;5097894;28;20055;-64
2021/01/24 01:18:13;;;;;;;16.05;5.43;;;14.90;99.90;;;;;;5096255;28;19919;-67
2021/01/24 01:20:39;;;;;;;38.15;7.90;;;14.70;99.90;;;;;;5095950;28;20104;-62
2021/01/24 01:23:06;;;;;;;24.77;6.82;;;14.60;99.90;;;;;;5097357;28;20031;-63
2021/01/24 01:25:32;;;;;;;;;;;14.30;99.90;;;;;;5102703;28;20051;-65
2021/01/24 01:27:58;;;;;;;27.98;7.28;;;14.40;99.90;;;;;;5105166;28;19924;-65
2021/01/24 01:30:25;;;;;;;;;;;14.20;99.90;;;;;;5104698;28;20050;-65
2021/01/24 01:32:51;;;;;;;15.35;5.10;;;14.00;99.90;;;;;;5103851;28;20302;-65
2021/01/24 01:35:17;;;;;;;;;;;13.80;99.90;;;;;;5105100;28;20161;-65
2021/01/24 01:37:44;;;;;;;10.43;4.80;;;13.80;99.90;;;;;;5094545;28;19923;-65
2021/01/24 01:40:10;;;;;;;;;;;13.80;99.90;;;;;;5113053;28;20068;-64
2021/01/24 01:42:37;;;;;;;16.70;6.50;;;13.80;99.90;;;;;;5111338;28;19922;-65
2021/01/24 01:45:06;;;;;;;12.82;5.05;;;13.90;99.90;;;;;;5112966;28;20067;-64
2021/01/24 01:47:33;;;;;;;10.98;4.97;;;13.90;99.90;;;;;;5097591;28;20086;-64
2021/01/24 01:50:00;;;;;;;9.10;3.83;;;13.80;99.90;;;;;;5099177;28;20073;-64
2021/01/24 01:52:29;;;;;;;9.98;4.70;;;13.80;99.90;;;;;;5099167;28;20054;-64
2021/01/24 01:54:56;;;;;;;9.57;3.97;;;13.80;99.90;;;;;;5103126;28;20035;-62
2021/01/24 01:57:26;;;;;;;10.32;3.97;;;13.70;99.90;;;;;;5087850;28;20092;-63
2021/01/24 01:59:53;;;;;;;13.43;4.22;;;13.70;99.90;;;;;;5101914;28;20076;-64
2021/01/24 02:02:43;;;;;;;9.18;3.67;;;13.70;99.90;;;;;;5100634;28;20063;-63
2021/01/24 02:05:15;;;;;;;8.65;3.85;;;13.60;99.90;;;;;;5101485;27;20059;-63
2021/01/24 02:08:06;;;;;;;9.43;3.55;;;13.60;99.90;;;;;;5105500;28;20049;-65
2021/01/24 02:10:55;;;;;;;5.05;2.80;;;13.60;99.90;;;;;;5102968;28;20123;-64
2021/01/24 02:13:53;;;;;;;5.50;3.40;;;13.50;99.90;;;;;;5108748;28;20149;-64
2021/01/24 02:16:20;;;;;;;;;;;13.50;99.90;;;;;;5110795;28;20044;-64
2021/01/24 02:18:50;;;;;;;6.22;2.85;;;13.50;99.90;;;;;;5092168;28;19924;-64
2021/01/24 02:21:30;;;;;;;6.15;3.00;;;13.40;99.90;;;;;;5092693;28;20045;-62
2021/01/24 02:24:02;;;;;;;7.93;3.13;;;13.30;99.90;;;;;;5093595;28;20044;-62
2021/01/24 02:27:06;;;;;;;5.55;3.05;;;13.20;99.90;;;;;;5107690;28;20049;-59
2021/01/24 02:30:09;;;;;;;4.90;2.70;;;13.20;99.90;;;;;;5098605;28;20030;-63
2021/01/24 02:32:36;;;;;;;9.05;3.72;;;13.10;99.90;;;;;;5107689;28;20111;-61
2021/01/24 02:35:04;;;;;;;6.05;2.80;;;13.00;99.90;;;;;;5110280;28;20148;-62
2021/01/24 02:37:33;;;;;;;4.97;2.63;;;13.00;99.90;;;;;;5107092;28;20123;-63
2021/01/24 02:40:01;;;;;;;4.72;2.88;;;13.00;99.90;;;;;;5108687;28;20049;-58
2021/01/24 02:42:29;;;;;;;4.35;2.88;;;13.00;99.90;;;;;;5111142;28;20077;-60
2021/01/24 02:44:57;;;;;;;6.32;2.83;;;13.00;99.90;;;;;;5105810;28;20503;-62
2021/01/24 02:47:25;;;;;;;5.03;2.90;;;13.00;99.90;;;;;;5102290;28;20044;-59
2021/01/24 02:49:52;;;;;;;3.95;2.45;;;12.90;99.90;;;;;;5110552;28;20084;-62
2021/01/24 02:52:19;;;;;;;4.82;2.00;;;13.00;99.90;;;;;;5109901;28;20058;-63
2021/01/24 02:54:46;;;;;;;6.22;2.60;;;13.00;99.90;;;;;;5109703;28;20039;-63
2021/01/24 02:57:13;;;;;;;6.70;2.53;;;13.00;99.90;;;;;;5111335;28;20028;-60
2021/01/24 02:59:40;;;;;;;4.63;2.10;;;13.00;99.90;;;;;;5106573;28;20121;-63
2021/01/24 03:02:07;;;;;;;7.18;2.38;;;13.00;99.90;;;;;;5112365;28;20094;-62
2021/01/24 03:04:33;;;;;;;;;;;13.00;99.90;;;;;;5101453;28;20035;-63
2021/01/24 03:07:00;;;;;;;7.75;3.50;;;13.10;99.90;;;;;;5104725;28;19924;-62
2021/01/24 03:09:27;;;;;;;8.23;2.85;;;13.20;99.90;;;;;;5107131;28;20079;-63
2021/01/24 03:11:55;;;;;;;4.82;2.40;;;13.20;99.90;;;;;;5111052;28;20047;-63
2021/01/24 03:14:29;;;;;;;4.07;2.10;;;13.30;99.90;;;;;;5108652;28;20124;-63
2021/01/24 03:16:57;;;;;;;4.55;2.30;;;13.20;99.90;;;;;;5106743;28;20026;-61
2021/01/24 03:19:26;;;;;;;5.60;3.10;;;13.20;99.90;;;;;;5092877;28;20137;-61
2021/01/24 03:21:54;;;;;;;7.00;3.35;;;13.10;99.90;;;;;;5107544;28;20062;-61
2021/01/24 03:24:22;;;;;;;5.25;2.80;;;13.10;99.90;;;;;;5108303;28;20047;-62
2021/01/24 03:26:50;;;;;;;5.95;3.75;;;13.10;99.90;;;;;;5100476;28;20376;-62
2021/01/24 03:29:17;;;;;;;6.10;3.10;;;13.10;99.90;;;;;;5101815;28;20353;-63
2021/01/24 03:31:48;;;;;;;5.25;2.92;;;13.00;99.90;;;;;;5104033;28;20032;-63
2021/01/24 03:34:25;;;;;;;6.32;3.00;;;13.00;99.90;;;;;;5100653;28;20054;-61
2021/01/24 03:36:53;;;;;;;6.40;2.33;;;12.90;99.90;;;;;;5108192;28;20100;-62
2021/01/24 03:39:21;;;;;;;6.30;2.08;;;12.90;99.90;;;;;;5099403;28;20396;-63
2021/01/24 03:41:47;;;;;;;4.22;2.17;;;12.90;99.90;;;;;;5103455;28;20093;-62
2021/01/24 03:44:14;;;;;;;3.67;1.75;;;12.90;99.90;;;;;;5100491;28;20074;-61
2021/01/24 03:46:41;;;;;;;3.13;1.63;;;12.90;99.90;;;;;;5073555;28;20043;-61
2021/01/24 03:49:08;;;;;;;4.22;1.52;;;12.90;99.90;;;;;;5099418;28;20118;-61
2021/01/24 03:51:34;;;;;;;;;;;12.90;99.90;;;;;;5086414;28;20044;-62
2021/01/24 03:54:01;;;;;;;0.80;0.80;;;12.80;99.90;;;;;;5102979;28;20003;-60
2021/01/24 03:56:27;;;;;;;;;;;12.70;99.90;;;;;;5100917;28;20068;-60
2021/01/24 03:58:54;;;;;;;1.50;0.50;;;12.70;99.90;;;;;;5105772;28;19927;-61
2021/01/24 04:01:20;;;;;;;0.55;0.30;;;12.70;99.90;;;;;;5097457;28;20041;-61
2021/01/24 04:03:46;;;;;;;;;;;12.60;99.90;;;;;;5106475;28;20492;-62
2021/01/24 04:06:13;;;;;;;0.45;0.45;;;12.60;99.90;;;;;;5109889;28;19918;-63
2021/01/24 04:08:39;;;;;;;;;;;12.60;99.90;;;;;;5104849;28;20039;-61
2021/01/24 04:11:05;;;;;;;2.15;0.80;;;12.70;99.90;;;;;;5075211;28;20291;-62
2021/01/24 04:13:31;;;;;;;;;;;12.70;99.90;;;;;;5083725;28;20068;-61
2021/01/24 04:15:58;;;;;;;1.17;0.70;;;12.60;99.90;;;;;;5082753;28;20004;-62
2021/01/24 04:18:24;;;;;;;;;;;12.60;99.90;;;;;;5099920;28;20097;-61
2021/01/24 04:20:51;;;;;;;0.52;0.50;;;12.70;99.90;;;;;;5080207;28;19980;-63
2021/01/24 04:23:17;;;;;;;;;;;12.60;99.90;;;;;;5105041;28;20380;-62
2021/01/24 04:25:44;;;;;;;0.80;0.70;;;12.70;99.90;;;;;;5105464;28;20435;-60
2021/01/24 04:28:10;;;;;;;;;;;12.70;99.90;;;;;;5102812;28;20044;-62
2021/01/24 04:30:36;;;;;;;1.60;0.65;;;12.70;99.90;;;;;;5105077;28;19959;-61
2021/01/24 04:33:05;;;;;;;;;;;12.70;99.90;;;;;;5107105;28;20060;-62
2021/01/24 04:35:31;;;;;;;0.52;0.47;;;12.70;99.90;;;;;;5099461;28;19957;-61
2021/01/24 04:37:58;;;;;;;0.50;0.50;;;12.60;99.90;;;;;;5098468;28;20028;-63
2021/01/24 04:40:24;;;;;;;;;;;12.60;99.90;;;;;;5096933;28;20043;-61
2021/01/24 04:42:50;;;;;;;1.48;0.60;;;12.60;99.90;;;;;;5101122;28;20018;-63
2021/01/24 04:45:19;;;;;;;0.57;0.50;;;12.50;99.90;;;;;;5103707;28;20561;-61
2021/01/24 04:47:46;;;;;;;2.55;0.60;;;12.50;99.90;;;;;;5095956;28;20071;-62
2021/01/24 04:50:13;;;;;;;2.15;0.60;;;12.50;99.90;;;;;;5101884;28;20038;-62
2021/01/24 04:52:40;;;;;;;7.35;0.90;;;12.40;99.90;;;;;;5104176;28;20102;-62
2021/01/24 04:55:08;;;;;;;1.85;0.90;;;12.40;99.90;;;;;;5109094;28;20032;-63
2021/01/24 04:57:36;;;;;;;2.20;0.93;;;12.40;99.90;;;;;;5104772;28;20073;-61
2021/01/24 05:00:05;;;;;;;0.85;0.82;;;12.40;99.90;;;;;;5098543;28;20489;-64
2021/01/24 05:02:32;;;;;;;1.85;0.90;;;12.40;99.90;;;;;;5083894;28;20512;-62
2021/01/24 05:04:58;;;;;;;;;;;12.30;99.90;;;;;;5085391;28;20178;-63
2021/01/24 05:07:25;;;;;;;1.40;0.90;;;12.30;99.90;;;;;;5093116;28;19929;-63
2021/01/24 05:09:52;;;;;;;1.85;0.80;;;12.30;99.90;;;;;;5106694;28;20049;-63
2021/01/24 05:12:20;;;;;;;2.97;0.63;;;12.30;99.90;;;;;;5105847;28;20052;-62
2021/01/24 05:14:50;;;;;;;0.93;0.70;;;12.30;99.90;;;;;;5100977;28;20132;-62
2021/01/24 05:17:17;;;;;;;1.15;0.70;;;12.30;99.90;;;;;;5108294;28;20045;-63
2021/01/24 05:19:44;;;;;;;1.67;0.73;;;12.40;99.90;;;;;;5110847;28;20646;-63
2021/01/24 05:22:11;;;;;;;0.98;0.80;;;12.40;99.90;;;;;;5096782;28;20129;-63
2021/01/24 05:24:38;;;;;;;3.13;0.88;;;12.30;99.90;;;;;;5085420;28;20032;-63
2021/01/24 05:27:12;;;;;;;1.55;0.90;;;12.40;99.90;;;;;;5105117;28;20383;-63
2021/01/24 05:29:44;;;;;;;2.10;1.10;;;12.40;99.90;;;;;;5093700;28;20385;-63
2021/01/24 05:32:12;;;;;;;1.20;1.00;;;12.40;99.90;;;;;;5098732;28;20134;-63
2021/01/24 05:34:38;;;;;;;1.63;1.00;;;12.40;99.90;;;;;;5105796;28;20060;-64
2021/01/24 05:37:05;;;;;;;2.15;1.30;;;12.40;99.90;;;;;;5085556;28;20118;-62
2021/01/24 05:39:32;;;;;;;2.45;0.70;;;12.30;99.90;;;;;;5105518;28;20047;-63
2021/01/24 05:42:00;;;;;;;1.05;0.70;;;12.20;99.90;;;;;;5091218;28;20042;-63
2021/01/24 05:44:28;;;;;;;0.73;0.60;;;12.10;99.90;;;;;;5109493;28;20496;-63
2021/01/24 05:47:03;;;;;;;1.65;0.82;;;12.10;99.90;;;;;;5092555;28;20041;-63
2021/01/24 05:49:33;;;;;;;1.10;0.60;;;12.10;99.90;;;;;;5088953;28;20070;-63
2021/01/24 05:52:04;;;;;;;3.28;0.70;;;12.00;99.90;;;;;;5111109;28;20046;-63
2021/01/24 05:54:44;;;;;;;0.80;0.77;;;12.00;99.90;;;;;;5106756;28;20103;-62
2021/01/24 05:57:12;;;;;;;2.70;0.60;;;11.90;99.90;;;;;;5100327;28;20038;-62
2021/01/24 05:59:49;;;;;;;3.47;0.80;;;12.00;99.90;;;;;;5090779;28;20534;-62
2021/01/24 06:02:16;;;;;;;;;;;11.90;99.90;;;;;;5107321;28;20053;-64
2021/01/24 06:04:44;;;;;;;15.13;8.80;;;12.00;99.90;;;;;;5102180;28;19925;-63
2021/01/24 06:07:13;;;;;;;5.68;3.50;;;12.00;99.50;;;;;;5100240;28;20078;-63
2021/01/24 06:09:40;;;;;;;15.82;9.02;;;11.90;99.90;;;;;;5103527;28;20399;-62
2021/01/24 06:12:09;;;;;;;;;;;11.90;98.80;;;;;;5085075;28;20092;-63
2021/01/24 06:14:39;;;;;;;3.55;2.25;;;11.90;97.90;;;;;;5104694;28;19923;-64
2021/01/24 06:17:37;;;;;;;3.55;2.05;;;12.00;99.20;;;;;;5100920;28;20044;-63
2021/01/24 06:20:06;;;;;;;1.83;1.40;;;11.90;96.40;;;;;;5103490;28;20073;-64
2021/01/24 06:22:39;;;;;;;2.65;1.88;;;11.90;96.00;;;;;;5105152;28;20053;-64
2021/01/24 06:25:16;;;;;;;2.70;1.67;;;11.90;94.50;;;;;;5103680;28;20044;-63
2021/01/24 06:27:47;;;;;;;2.70;1.60;;;11.90;94.10;;;;;;5106830;28;20501;-65
2021/01/24 06:30:16;;;;;;;2.55;1.23;;;11.90;95.20;;;;;;5106167;28;20044;-63
2021/01/24 06:32:42;;;;;;;2.58;1.40;;;11.90;93.30;;;;;;5084187;28;20139;-63
2021/01/24 06:35:20;;;;;;;11.00;6.13;;;11.90;94.70;;;;;;5102817;28;20490;-63
2021/01/24 06:38:00;;;;;;;7.80;4.00;;;11.90;94.00;;;;;;5088596;28;20055;-64
2021/01/24 06:40:29;;;;;;;14.93;7.68;;;11.80;95.00;;;;;;5081919;28;20048;-63
2021/01/24 06:42:58;;;;;;;11.15;6.00;;;11.90;94.10;;;;;;5086447;28;20047;-64
2021/01/24 06:45:28;;;;;;;29.48;15.68;;;11.90;93.20;;;;;;5074078;28;20037;-65
2021/01/24 06:47:56;;;;;;;33.22;16.85;;;11.80;92.70;;;;;;5075023;28;20044;-64
2021/01/24 06:50:38;;;;;;;10.63;5.05;;;11.80;92.80;;;;;;5081528;28;20581;-65
2021/01/24 06:53:09;;;;;;;5.55;3.40;;;11.80;93.70;;;;;;5088547;28;20068;-65
2021/01/24 06:55:37;;;;;;;11.52;6.88;;;11.80;93.30;;;;;;5089832;28;20043;-65
2021/01/24 06:58:49;;;;;;;4.22;2.22;;;11.80;93.30;;;;;;5092039;28;20038;-64
2021/01/24 07:01:28;;;;;;;8.32;3.95;;;11.80;93.70;;;;;;5031586;28;20047;-62
2021/01/24 07:04:19;;;;;;;7.05;3.15;;;11.80;95.60;;;;;;5034563;28;20036;-64
2021/01/24 07:06:57;;;;;;;6.70;2.05;;;11.70;95.00;;;;;;5078378;28;20057;-64
2021/01/24 07:09:27;;;;;;;4.45;2.13;;;11.70;95.50;;;;;;5078379;28;20403;-65
2021/01/24 07:11:58;;;;;;;8.18;2.40;;;11.70;96.70;;;;;;5068096;28;20118;-64
2021/01/24 07:14:37;;;;;;;2.42;1.80;;;11.60;98.20;;;;;;5089323;28;20039;-64
2021/01/24 07:17:06;;;;;;;3.53;1.15;;;11.70;99.90;;;;;;5083124;28;20093;-67
2021/01/24 07:19:36;;;;;;;2.38;1.25;;;11.70;98.60;;;;;;5089061;28;20036;-64
2021/01/24 07:22:05;;;;;;;3.75;2.67;;;11.60;97.30;;;;;;5073073;28;20047;-63
2021/01/24 07:24:32;;;;;;;2.88;1.33;;;11.50;96.90;;;;;;5088007;28;20392;-63
2021/01/24 07:27:00;;;;;;;5.57;1.80;;;11.40;97.90;;;;;;5073138;28;20459;-63
2021/01/24 07:29:28;;;;;;;4.90;2.63;;;11.40;97.30;;;;;;5085608;28;20481;-64
2021/01/24 07:31:55;;;;;;;3.58;1.30;;;11.30;97.90;;;;;;5089047;28;20048;-64
2021/01/24 07:34:21;;;;;;;;;;;11.30;98.80;;;;;;5089596;28;20049;-65
2021/01/24 07:36:49;;;;;;;2.17;1.25;;;11.30;98.60;;;;;;5090879;28;19962;-64
2021/01/24 07:39:17;;;;;;;4.70;1.25;;;11.40;99.90;;;;;;5088563;28;20052;-64
2021/01/24 07:41:45;;;;;;;1.60;0.93;;;11.40;99.90;;;;;;5073162;28;20048;-64
2021/01/24 07:44:11;;;;;;;2.17;1.17;;;11.40;99.90;;;;;;5066665;28;20045;-64
2021/01/24 07:46:37;;;;;;;;;;;11.40;99.70;;;;;;5090586;28;20128;-64
2021/01/24 07:49:04;;;;;;;2.30;1.60;;;11.30;99.30;;;;;;5087914;28;19924;-64
2021/01/24 07:51:31;;;;;;;2.33;1.63;;;11.20;98.40;;;;;;5087335;28;20031;-65
2021/01/24 07:53:58;;;;;;;8.57;4.65;;;11.20;98.90;;;;;;5087576;28;20065;-64
2021/01/24 07:56:26;;;;;;;3.10;1.65;;;11.20;99.90;;;;;;5065631;28;20040;-65
2021/01/24 07:58:52;;;;;;;3.22;1.10;;;11.20;98.30;;;;;;5067085;28;20060;-64
2021/01/24 08:01:21;;;;;;;1.75;0.93;;;11.20;98.10;;;;;;5088717;28;20520;-63
2021/01/24 08:03:51;;;;;;;3.38;1.00;;;11.20;97.20;;;;;;5089777;28;20423;-61
2021/01/24 08:06:18;;;;;;;2.92;0.85;;;11.20;96.10;;;;;;5073051;28;20404;-62
2021/01/24 08:08:46;;;;;;;10.82;4.95;;;11.20;95.20;;;;;;5085201;28;20439;-64
2021/01/24 08:11:13;;;;;;;4.47;1.58;;;11.30;94.60;;;;;;5088284;28;20176;-64
2021/01/24 08:13:42;;;;;;;1.88;0.93;;;11.30;94.10;;;;;;5086593;28;20066;-64
2021/01/24 08:16:15;;;;;;;4.57;1.17;;;11.30;93.40;;;;;;5087467;28;20036;-64
2021/01/24 08:18:46;;;;;;;2.10;0.80;;;11.30;92.80;;;;;;5086697;28;20035;-64
2021/01/24 08:21:15;;;;;;;2.22;1.02;;;11.30;92.80;;;;;;5086907;28;20066;-64
2021/01/24 08:23:42;;;;;;;6.72;2.67;;;11.30;93.20;;;;;;5087002;28;20044;-64
2021/01/24 08:26:08;;;;;;;3.42;1.90;;;11.30;92.80;;;;;;5084486;28;20404;-63
2021/01/24 08:28:36;;;;;;;;;;;11.30;92.70;;;;;;5089441;28;20050;-64
2021/01/24 08:31:03;;;;;;;1.70;1.30;;;11.30;91.90;;;;;;5086275;28;19930;-65
2021/01/24 08:33:29;;;;;;;2.78;1.02;;;11.30;92.60;;;;;;5087356;28;20061;-65
2021/01/24 08:36:16;;;;;;;3.30;1.13;;;11.30;92.20;;;;;;5086517;28;20076;-65
2021/01/24 08:38:43;;;;;;;2.95;0.70;;;11.30;92.00;;;;;;5089806;28;20064;-64
2021/01/24 08:41:10;;;;;;;1.75;0.60;;;11.20;92.70;;;;;;5086072;28;20035;-65
2021/01/24 08:43:38;;;;;;;5.90;1.60;;;11.20;92.20;;;;;;5070650;28;20036;-64
2021/01/24 08:46:27;;;;;;;2.28;1.35;;;11.10;92.70;;;;;;5088715;28;20076;-65
2021/01/24 08:49:07;;;;;;;9.07;3.22;;;11.10;92.80;;;;;;5084648;28;20047;-65
2021/01/24 08:51:46;;;;;;;12.82;5.70;;;11.00;93.50;;;;;;5087511;28;20121;-65
2021/01/24 08:54:20;;;;;;;5.07;1.73;;;11.00;93.20;;;;;;5087825;28;20097;-65
2021/01/24 08:56:47;;;;;;;6.18;2.05;;;11.00;93.30;;;;;;5082619;28;20028;-65
2021/01/24 08:59:22;;;;;;;3.40;1.30;;;11.00;93.40;;;;;;5083768;28;20056;-65
2021/01/24 09:01:51;;;;;;;9.13;2.15;;;11.00;94.50;;;;;;5086356;28;20119;-65
2021/01/24 09:04:19;;;;;;;2.83;1.20;;;10.90;93.60;;;;;;5070927;28;20047;-64
2021/01/24 09:07:07;;;;;;;3.92;0.98;;;10.90;93.80;;;;;;5085630;28;20112;-65
2021/01/24 09:09:35;;;;;;;2.78;1.50;;;10.90;94.60;;;;;;5067574;28;20036;-65
2021/01/24 09:12:02;;;;;;;3.33;1.13;;;10.80;92.70;;;;;;5087102;28;20046;-65
2021/01/24 09:14:28;;;;;;;;;;;10.80;93.70;;;;;;5083677;28;20163;-65
2021/01/24 09:17:15;;;;;;;3.58;1.13;;;10.80;92.90;;;;;;5084312;28;19931;-66
2021/01/24 09:19:46;;;;;;;2.43;1.10;;;10.90;94.00;;;;;;5084753;28;20059;-65
2021/01/24 09:22:15;;;;;;;10.15;3.05;;;10.80;94.30;;;;;;5083671;28;20035;-65
2021/01/24 09:24:42;;;;;;;12.55;4.20;;;10.80;93.40;;;;;;5088118;28;20047;-65
2021/01/24 09:27:11;;;;;;;22.92;7.97;;;10.90;95.20;;;;;;5086966;28;20136;-64
2021/01/24 09:29:40;;;;;;;15.40;5.13;;;10.80;93.80;;;;;;5088208;28;20036;-66
2021/01/24 09:32:08;;;;;;;6.47;2.70;;;10.80;95.10;;;;;;5081083;28;20063;-65
2021/01/24 09:34:35;;;;;;;4.18;1.63;;;10.90;96.50;;;;;;5086055;28;20051;-65
2021/01/24 09:37:02;;;;;;;2.42;1.17;;;10.80;94.50;;;;;;5100233;28;20165;-65
2021/01/24 09:39:29;;;;;;;1.40;0.80;;;10.80;95.10;;;;;;5090909;28;20060;-63
2021/01/24 09:41:55;;;;;;;;;;;10.90;95.50;;;;;;5107657;28;20045;-65
2021/01/24 09:44:22;;;;;;;2.03;1.10;;;10.80;97.70;;;;;;5107733;28;19933;-65
2021/01/24 09:46:48;;;;;;;1.65;0.85;;;10.80;97.90;;;;;;5107238;28;20040;-65
2021/01/24 09:49:16;;;;;;;2.75;0.93;;;10.80;98.60;;;;;;5085352;28;20421;-64
2021/01/24 09:51:42;;;;;;;;;;;10.80;98.40;;;;;;5108207;28;20447;-65
2021/01/24 09:54:10;;;;;;;2.42;0.85;;;10.70;98.30;;;;;;5109623;28;19952;-65
2021/01/24 09:56:36;;;;;;;5.10;1.50;;;10.70;96.00;;;;;;5108298;28;20535;-64
2021/01/24 09:59:03;;;;;;;3.90;1.05;;;10.60;94.60;;;;;;5106800;28;20140;-64
2021/01/24 10:01:29;;;;;;;;;;;10.60;91.20;;;;;;5096839;28;20140;-64
2021/01/24 10:03:55;;;;;;;3.75;2.40;;;10.70;91.30;;;;;;5107731;28;19941;-64
2021/01/24 10:06:22;;;;;;;;;;;10.70;90.50;;;;;;5113014;28;20055;-65
2021/01/24 10:08:49;;;;;;;1.85;1.27;;;10.70;90.90;;;;;;5108455;28;19966;-66
2021/01/24 10:11:17;;;;;;;2.50;1.20;;;10.80;91.50;;;;;;5111613;28;20035;-64
2021/01/24 10:13:43;;;;;;;4.28;1.08;;;10.80;89.60;;;;;;5107230;28;20065;-64
2021/01/24 10:16:09;;;;;;;;;;;10.80;88.10;;;;;;5110057;28;20040;-65
2021/01/24 10:18:36;;;;;;;1.85;0.68;;;11.00;82.80;;;;;;5114080;28;19923;-64
2021/01/24 10:21:03;;;;;;;3.10;0.68;;;11.00;83.90;;;;;;5099086;28;20035;-63
2021/01/24 10:23:30;;;;;;;3.60;1.00;;;11.10;81.10;;;;;;5102341;28;20042;-65
2021/01/24 10:25:57;;;;;;;;;;;11.20;81.80;;;;;;5108052;28;20040;-65
2021/01/24 10:28:24;;;;;;;1.90;0.60;;;11.20;82.70;;;;;;5102281;28;19928;-64
2021/01/24 10:30:52;;;;;;;0.52;0.47;;;11.20;84.30;;;;;;5104369;28;20050;-65
2021/01/24 10:33:19;;;;;;;2.20;0.80;;;11.20;83.40;;;;;;5090039;28;20060;-64
2021/01/24 10:35:46;;;;;;;4.68;0.75;;;11.10;82.70;;;;;;5092886;28;20071;-65
2021/01/24 10:38:13;;;;;;;1.17;0.55;;;11.00;83.50;;;;;;5104753;28;20037;-64
2021/01/24 10:40:40;;;;;;;2.28;0.88;;;11.00;84.80;;;;;;5107714;28;20446;-65
2021/01/24 10:43:06;;;;;;;;;;;11.00;85.00;;;;;;5110128;28;20040;-65
2021/01/24 10:45:34;;;;;;;2.13;0.75;;;10.90;85.80;;;;;;5109608;28;19986;-65
2021/01/24 10:48:02;;;;;;;3.95;0.70;;;10.90;88.10;;;;;;5105503;28;20416;-65
2021/01/24 10:50:30;;;;;;;1.42;0.77;;;10.80;88.20;;;;;;5112028;28;20121;-65
2021/01/24 10:52:57;;;;;;;1.02;0.50;;;10.80;90.50;;;;;;5108264;28;20126;-65
2021/01/24 10:55:24;;;;;;;2.85;0.90;;;10.80;89.00;;;;;;5080745;28;20147;-65
2021/01/24 10:57:51;;;;;;;1.60;0.60;;;10.80;89.90;;;;;;5087785;28;20048;-65
2021/01/24 11:00:18;;;;;;;3.33;0.80;;;10.70;90.10;;;;;;5108215;28;20043;-65
2021/01/24 11:02:45;;;;;;;3.72;0.80;;;10.70;90.90;;;;;;5108233;28;20475;-65
2021/01/24 11:05:11;;;;;;;2.00;0.52;;;10.70;91.30;;;;;;5101477;28;20049;-65
2021/01/24 11:07:38;;;;;;;3.72;1.00;;;10.70;92.60;;;;;;5089930;28;20053;-65
2021/01/24 11:10:09;;;;;;;2.50;0.77;;;10.60;92.30;;;;;;5111449;28;20037;-65
2021/01/24 11:12:35;;;;;;;2.28;0.70;;;10.60;94.50;;;;;;5101165;28;20257;-65
2021/01/24 11:15:02;;;;;;;2.58;0.75;;;10.60;95.20;;;;;;5103469;28;20454;-65
2021/01/24 11:17:30;;;;;;;0.95;0.60;;;10.60;94.70;;;;;;5106696;28;20045;-65
2021/01/24 11:19:57;;;;;;;1.63;0.70;;;10.40;93.80;;;;;;5088577;28;20037;-65
2021/01/24 11:22:24;;;;;;;2.03;0.93;;;10.40;96.40;;;;;;5106149;28;20048;-65
2021/01/24 11:24:51;;;;;;;2.53;0.80;;;10.40;97.10;;;;;;5106419;28;20084;-65
2021/01/24 11:27:17;;;;;;;5.47;1.00;;;10.20;96.50;;;;;;5088940;28;20036;-65
2021/01/24 11:29:44;;;;;;;;;;;10.20;97.60;;;;;;5082840;28;20051;-65
2021/01/24 11:32:11;;;;;;;0.80;0.70;;;10.20;98.70;;;;;;5107049;28;19919;-65
2021/01/24 11:34:38;;;;;;;3.58;0.80;;;10.20;98.90;;;;;;5095227;28;20408;-65
2021/01/24 11:37:06;;;;;;;2.95;1.00;;;10.20;99.60;;;;;;5103603;28;20045;-65
2021/01/24 11:39:34;;;;;;;1.95;1.02;;;10.20;99.40;;;;;;5092401;28;20559;-65
2021/01/24 11:42:02;;;;;;;8.52;1.20;;;10.20;99.90;;;;;;5088903;28;20098;-65
2021/01/24 11:44:29;;;;;;;3.25;1.10;;;10.10;99.90;;;;;;5110930;27;20049;-65
2021/01/24 11:46:56;;;;;;;2.42;0.80;;;10.10;99.70;;;;;;5110974;28;20051;-65
2021/01/24 11:49:22;;;;;;;;;;;10.10;99.90;;;;;;5105717;28;20037;-65
2021/01/24 11:51:49;;;;;;;2.53;1.25;;;10.00;99.90;;;;;;5094300;28;20024;-65
2021/01/24 11:54:15;;;;;;;4.05;1.20;;;10.00;99.90;;;;;;5107616;28;20061;-65
2021/01/24 11:56:42;;;;;;;;;;;10.00;99.90;;;;;;5107706;28;20497;-63
2021/01/24 11:59:09;;;;;;;2.35;1.20;;;10.00;99.90;;;;;;5091471;28;19978;-64
2021/01/24 12:01:36;;;;;;;1.80;1.13;;;9.90;99.90;;;;;;5110101;28;20089;-64
2021/01/24 12:04:02;;;;;;;;;;;9.90;99.90;;;;;;5091661;28;20090;-65
2021/01/24 12:06:29;;;;;;;4.47;1.58;;;9.80;99.90;;;;;;5089788;28;19981;-65
2021/01/24 12:08:56;;;;;;;1.83;1.13;;;9.80;99.90;;;;;;5106412;28;20042;-64
2021/01/24 12:11:22;;;;;;;;;;;9.80;99.90;;;;;;5094667;28;20060;-64
2021/01/24 12:13:48;;;;;;;6.97;1.50;;;9.80;99.90;;;;;;5110124;28;19941;-64
2021/01/24 12:16:15;;;;;;;;;;;9.80;99.90;;;;;;5107814;28;20060;-63
2021/01/24 12:18:41;;;;;;;2.22;1.08;;;9.70;99.90;;;;;;5106228;28;20401;-64
2021/01/24 12:21:08;;;;;;;2.30;1.00;;;9.60;99.90;;;;;;5104161;28;20029;-64
2021/01/24 12:23:34;;;;;;;;;;;9.70;99.90;;;;;;5110256;28;20130;-64
2021/01/24 12:26:00;;;;;;;6.40;1.10;;;9.70;99.90;;;;;;5109065;28;19921;-64
2021/01/24 12:28:26;;;;;;;;;;;9.70;99.90;;;;;;5099394;27;20048;-64
2021/01/24 12:30:53;;;;;;;2.20;1.33;;;9.70;99.90;;;;;;5107045;28;19922;-64
2021/01/24 12:33:20;;;;;;;2.58;0.90;;;9.60;99.90;;;;;;5088159;28;20070;-64
2021/01/24 12:35:46;;;;;;;3.22;1.33;;;9.50;99.90;;;;;;5104704;28;20081;-64
2021/01/24 12:38:12;;;;;;;;;;;9.30;99.90;;;;;;5108366;28;20402;-63
2021/01/24 12:40:39;;;;;;;3.72;1.38;;;9.40;99.90;;;;;;5112519;28;19925;-64
2021/01/24 12:43:05;;;;;;;;;;;9.40;99.90;;;;;;5093570;28;20072;-63
2021/01/24 12:45:32;;;;;;;1.58;1.13;;;9.40;99.90;;;;;;5105131;28;19960;-64
2021/01/24 12:47:58;;;;;;;;;;;9.30;99.90;;;;;;5102990;28;20039;-64
2021/01/24 12:50:24;;;;;;;1.95;0.90;;;9.30;99.90;;;;;;5106222;28;19930;-64
2021/01/24 12:52:51;;;;;;;2.40;1.45;;;9.30;99.90;;;;;;5107545;28;20065;-64
2021/01/24 12:55:17;;;;;;;;;;;9.30;99.90;;;;;;5104565;28;20125;-64
2021/01/24 12:57:43;;;;;;;5.65;1.05;;;9.20;99.90;;;;;;5108469;28;19962;-64
2021/01/24 13:00:11;;;;;;;2.55;1.27;;;9.20;99.90;;;;;;5107340;28;20038;-64
2021/01/24 13:02:37;;;;;;;2.92;0.73;;;9.10;99.90;;;;;;5107629;28;20052;-64
2021/01/24 13:05:05;;;;;;;1.25;0.88;;;9.20;99.90;;;;;;5090985;28;20045;-64
2021/01/24 13:07:32;;;;;;;0.65;0.55;;;9.20;99.90;;;;;;5109238;28;20402;-64